To NAV CANADA Home Page Login to a new session Search on AWWS site Disclaimer Vers la page française équivalente Tips FAQ What's new on the site To the Forecasts and Observations / NOTAM section To "File a Flight Plan" website Publications and other links Update of the User's profile FIC Telephone Numbers My Weather Data Folder Route Weather Data Regional Weather Data Local Weather Data To the Forecasts and Observations / NOTAM section
Request Generated 09/21/2020 at 17:58:25 UTC . Weather information available at that time is displayed.

METAR/TAF

GOOSE BAY/NL    

METAR CYYR 211700Z 20024G31KT 15SM FEW045 FEW130 BKN180 BKN280 16/02 A3015 RMK CF1AC2AC2CS2 SLP213=
SPECI CYYR 211654Z 21022G29KT 15SM FEW045 FEW130 SCT160 BKN280 16/03 A3016 RMK CF1AC2AC2CS2 SLP216=
METAR CYYR 211600Z 21025G32KT 15SM FEW045 FEW065 FEW100 FEW240 BKN280 15/02 A3019 RMK CF1SC1AC2CI1CS2 SLP227=
METAR CYYR 211500Z 21021G28KT 15SM FEW042 FEW120 FEW180 FEW240 SCT280 13/02 A3021 RMK CF1AC1AC2CI1CS2 SLP232=

TAF CYYR 211730Z 2118/2218 25018G33KT P6SM FEW040 SCT130 BKN180
FM212300 25015G30KT P6SM FEW030 FEW140
BECMG 2202/2204 26012KT
BECMG 2212/2214 23010G20KT
RMK NXT FCST BY 220000Z=
Your time UTC time
Weather data provided by Environment Canada and NAV CANADA